Time;durP1;ratioP1;P1;durP2;ratioP2;P2;SDS_P1;SDS_P2;PMS_P1;PMS_P2;Temp;Humidity;BMP_temperature;BMP_pressure;BME280_temperature;BME280_humidity;BME280_pressure;Samples;Min_cycle;Max_cycle;Signal;HPM_P1;HPM_P2
2024/01/01 00:02:52;;;;;;;49.40;32.40;;;;;;;3.37;88.77;98888.50;216171;1264;142316;-72
2024/01/01 00:07:56;;;;;;;52.50;32.10;;;;;;;3.35;88.70;98893.10;216060;1264;143004;-73
2024/01/01 00:12:59;;;;;;;51.60;32.20;;;;;;;3.31;88.50;98900.58;215785;1264;139929;-72
2024/01/01 00:18:03;;;;;;;43.80;27.00;;;;;;;3.23;88.23;98896.05;216058;1264;140653;-71
2024/01/01 00:23:06;;;;;;;39.70;25.70;;;;;;;3.08;87.87;98894.84;215891;1264;140460;-73
2024/01/01 00:28:10;;;;;;;42.60;29.10;;;;;;;2.96;87.89;98895.01;215996;1265;142059;-72
2024/01/01 00:33:13;;;;;;;44.30;26.10;;;;;;;2.87;88.01;98892.13;216029;1264;139937;-74
2024/01/01 00:38:16;;;;;;;45.20;27.50;;;;;;;2.76;87.62;98887.27;216048;1267;140668;-73
2024/01/01 00:43:19;;;;;;;51.80;31.00;;;;;;;2.64;87.98;98876.03;215823;1264;141873;-72
2024/01/01 00:48:22;;;;;;;54.00;29.80;;;;;;;2.61;88.27;98870.92;215825;1267;140434;-73
2024/01/01 00:53:25;;;;;;;46.50;29.30;;;;;;;2.52;87.75;98872.19;215944;1264;140342;-73
2024/01/01 00:58:34;;;;;;;56.30;32.80;;;;;;;2.42;87.66;98873.98;215875;1267;139793;-74
2024/01/01 01:03:37;;;;;;;61.20;31.30;;;;;;;2.30;87.63;98869.54;217985;1264;140294;-74
2024/01/01 01:08:41;;;;;;;43.20;27.20;;;;;;;2.26;88.23;98872.00;216248;1267;220990;-73
2024/01/01 01:13:44;;;;;;;65.70;39.40;;;;;;;2.19;87.92;98887.48;215864;1265;140473;-72
2024/01/01 01:18:47;;;;;;;59.30;36.40;;;;;;;2.18;88.10;98890.06;216126;1263;141712;-71
2024/01/01 01:23:49;;;;;;;66.60;39.70;;;;;;;2.18;88.46;98885.89;216146;1263;139540;-72
2024/01/01 01:28:52;;;;;;;63.90;37.40;;;;;;;2.20;88.71;98882.59;218106;1262;140011;-72
2024/01/01 01:33:55;;;;;;;63.30;35.30;;;;;;;2.24;88.74;98880.73;216727;1264;141915;-72
2024/01/01 01:38:58;;;;;;;67.20;36.50;;;;;;;2.26;88.96;98872.27;215855;1267;140943;-72
2024/01/01 01:44:00;;;;;;;56.10;33.70;;;;;;;2.29;89.10;98867.84;216088;1263;141970;-71
2024/01/01 01:49:04;;;;;;;49.60;30.80;;;;;;;2.27;89.12;98871.55;216021;1263;140437;-72
2024/01/01 01:54:08;;;;;;;49.70;30.10;;;;;;;2.27;89.31;98869.81;215980;1262;143434;-71
2024/01/01 01:59:12;;;;;;;60.30;33.40;;;;;;;2.29;89.60;98870.38;215987;1264;139478;-71
2024/01/01 02:04:15;;;;;;;57.20;33.60;;;;;;;2.32;89.91;98865.57;215911;1267;140522;-70
2024/01/01 02:09:18;;;;;;;57.10;31.90;;;;;;;2.34;90.02;98859.88;215934;1264;140743;-71
2024/01/01 02:14:21;;;;;;;43.30;26.00;;;;;;;2.39;90.20;98863.15;215819;1267;139921;-70
2024/01/01 02:19:26;;;;;;;48.00;28.50;;;;;;;2.42;90.46;98868.57;215748;1267;140751;-71
2024/01/01 02:24:32;;;;;;;53.40;31.00;;;;;;;2.48;90.59;98869.73;215761;1265;140221;-71
2024/01/01 02:29:37;;;;;;;43.40;26.20;;;;;;;2.52;90.80;98874.52;215849;1266;139918;-72
2024/01/01 02:34:40;;;;;;;60.00;31.90;;;;;;;2.57;90.90;98884.81;215873;1264;140024;-71
2024/01/01 02:39:44;;;;;;;53.00;28.50;;;;;;;2.62;91.07;98890.19;216054;1267;139635;-72
2024/01/01 02:44:47;;;;;;;46.60;26.30;;;;;;;2.69;91.29;98890.15;216187;1263;139794;-72
2024/01/01 02:49:50;;;;;;;50.30;28.50;;;;;;;2.75;91.36;98888.27;216036;1266;140619;-71
2024/01/01 02:54:53;;;;;;;44.90;27.40;;;;;;;2.81;91.41;98886.79;215733;1264;139982;-72
2024/01/01 02:59:56;;;;;;;48.50;29.80;;;;;;;2.86;91.62;98885.05;215864;1267;141929;-71
2024/01/01 03:05:00;;;;;;;44.30;24.90;;;;;;;2.89;91.50;98880.27;215925;1267;141793;-71
2024/01/01 03:10:04;;;;;;;51.50;26.80;;;;;;;2.92;91.71;98876.98;218108;1263;140172;-72
2024/01/01 03:15:07;;;;;;;48.70;28.30;;;;;;;2.98;91.83;98875.19;216321;1264;139671;-71
2024/01/01 03:20:11;;;;;;;44.90;26.80;;;;;;;3.03;91.85;98877.56;217511;1264;140733;-70
2024/01/01 03:25:14;;;;;;;47.60;27.10;;;;;;;3.10;91.97;98877.52;215737;1265;141185;-72
2024/01/01 03:30:18;;;;;;;40.40;24.00;;;;;;;3.14;91.88;98874.40;216045;1267;140008;-71
2024/01/01 03:35:21;;;;;;;45.70;27.70;;;;;;;3.18;91.93;98871.59;216043;1264;140718;-72
2024/01/01 03:40:24;;;;;;;40.70;24.80;;;;;;;3.22;92.01;98872.27;216137;1264;141924;-72
2024/01/01 03:45:28;;;;;;;43.80;23.90;;;;;;;3.25;91.99;98879.23;216174;1264;139597;-73
2024/01/01 03:50:31;;;;;;;43.70;24.70;;;;;;;3.29;92.02;98882.95;215802;1264;140216;-71
2024/01/01 03:55:35;;;;;;;41.90;23.90;;;;;;;3.31;92.07;98881.25;216172;1264;139784;-71
2024/01/01 04:00:38;;;;;;;40.70;23.00;;;;;;;3.34;92.17;98878.20;215976;1262;141824;-71
2024/01/01 04:05:41;;;;;;;52.00;29.20;;;;;;;3.38;92.20;98877.80;216144;1267;140116;-72
2024/01/01 04:10:44;;;;;;;30.20;19.80;;;;;;;3.43;92.40;98872.14;216143;1267;139808;-71
2024/01/01 04:15:47;;;;;;;42.00;22.20;;;;;;;3.48;92.58;98876.05;215870;1265;140005;-71
2024/01/01 04:20:51;;;;;;;39.60;22.20;;;;;;;3.55;92.58;98864.96;215807;1264;140038;-72
2024/01/01 04:25:54;;;;;;;43.00;24.90;;;;;;;3.60;92.73;98862.10;216512;1263;139920;-71
2024/01/01 04:30:57;;;;;;;46.20;24.00;;;;;;;3.65;92.61;98861.50;215726;1267;140484;-72
2024/01/01 04:36:00;;;;;;;42.90;23.50;;;;;;;3.72;92.56;98856.10;216214;1267;140556;-71
2024/01/01 04:41:04;;;;;;;41.80;26.60;;;;;;;3.73;92.68;98856.62;216106;1265;140234;-71
2024/01/01 04:46:08;;;;;;;50.00;25.10;;;;;;;3.76;92.63;98856.52;216031;1265;140214;-71
2024/01/01 04:51:11;;;;;;;41.20;25.10;;;;;;;3.79;92.73;98847.91;216081;1267;139421;-71
2024/01/01 04:56:14;;;;;;;43.90;24.60;;;;;;;3.82;92.63;98838.04;215869;1267;140020;-70
2024/01/01 05:01:17;;;;;;;44.50;24.60;;;;;;;3.83;92.80;98836.86;215936;1265;140514;-71
2024/01/01 05:06:20;;;;;;;46.10;26.70;;;;;;;3.83;92.86;98843.14;215973;1265;140958;-71
2024/01/01 05:11:23;;;;;;;46.90;25.50;;;;;;;3.83;92.91;98842.33;215938;1265;140706;-70
2024/01/01 05:16:26;;;;;;;46.70;26.70;;;;;;;3.83;92.83;98830.61;215977;1265;139922;-70
2024/01/01 05:21:29;;;;;;;43.70;24.20;;;;;;;3.85;92.99;98830.31;216186;1264;139490;-71
2024/01/01 05:26:31;;;;;;;49.60;28.40;;;;;;;3.84;92.87;98831.54;216292;1264;140229;-72
2024/01/01 05:31:33;;;;;;;39.20;25.60;;;;;;;3.83;92.99;98826.55;215838;1265;140958;-69
2024/01/01 05:36:37;;;;;;;49.50;27.70;;;;;;;3.83;92.88;98825.17;215928;1264;140547;-71
2024/01/01 05:41:40;;;;;;;47.60;25.10;;;;;;;3.81;92.95;98828.99;216813;1265;140318;-70
2024/01/01 05:46:43;;;;;;;41.20;25.60;;;;;;;3.80;93.11;98831.93;215759;1264;141243;-69
2024/01/01 05:51:47;;;;;;;46.40;24.90;;;;;;;3.80;92.91;98829.61;216174;1264;139940;-71
2024/01/01 05:56:50;;;;;;;36.20;24.20;;;;;;;3.81;93.04;98829.89;215966;1265;139852;-71
2024/01/01 06:01:53;;;;;;;39.10;24.70;;;;;;;3.81;92.91;98828.15;215957;1264;139970;-69
2024/01/01 06:06:56;;;;;;;36.60;23.40;;;;;;;3.79;93.02;98823.77;215793;1265;139633;-70
2024/01/01 06:12:00;;;;;;;43.90;25.20;;;;;;;3.74;92.69;98825.23;216099;1265;139855;-69
2024/01/01 06:17:04;;;;;;;43.50;25.20;;;;;;;3.72;92.78;98822.76;215807;1267;139819;-69
2024/01/01 06:22:07;;;;;;;47.10;25.90;;;;;;;3.72;93.07;98823.45;215813;1263;141172;-70
2024/01/01 06:27:09;;;;;;;45.80;26.90;;;;;;;3.75;93.36;98835.92;215953;1267;140832;-71
2024/01/01 06:32:12;;;;;;;39.60;24.50;;;;;;;3.77;93.27;98830.65;215900;1265;139814;-72
2024/01/01 06:37:16;;;;;;;37.90;22.30;;;;;;;3.77;93.19;98830.65;216178;1264;139911;-72
2024/01/01 06:42:18;;;;;;;39.00;23.30;;;;;;;3.75;93.44;98835.92;215891;1265;142004;-73
2024/01/01 06:47:22;;;;;;;36.70;21.60;;;;;;;3.72;93.00;98841.41;216691;1262;140051;-70
2024/01/01 06:52:27;;;;;;;47.90;25.20;;;;;;;3.68;93.15;98838.63;218667;1267;140775;-76
2024/01/01 06:57:30;;;;;;;47.40;25.50;;;;;;;3.71;93.50;98826.30;216125;1265;139576;-76
2024/01/01 07:02:32;;;;;;;51.70;24.80;;;;;;;3.76;93.57;98830.45;216091;1267;139991;-73
2024/01/01 07:07:34;;;;;;;42.10;24.40;;;;;;;3.79;93.74;98835.83;216697;1262;139647;-72
2024/01/01 07:12:37;;;;;;;43.70;28.30;;;;;;;3.78;93.47;98830.23;216352;1267;140131;-72
2024/01/01 07:17:44;;;;;;;41.60;24.70;;;;;;;3.79;93.71;98823.25;216273;1264;139689;-71
2024/01/01 07:22:46;;;;;;;41.50;27.00;;;;;;;3.80;93.82;98828.60;216257;1265;139677;-69
2024/01/01 07:27:49;;;;;;;45.90;26.40;;;;;;;3.80;93.87;98834.73;216160;1265;139969;-71
2024/01/01 07:32:51;;;;;;;47.70;27.20;;;;;;;3.80;93.79;98837.61;216014;1267;140591;-71
2024/01/01 07:37:54;;;;;;;42.20;26.00;;;;;;;3.79;93.84;98834.45;216107;1267;140407;-72
2024/01/01 07:42:56;;;;;;;47.10;26.60;;;;;;;3.80;94.09;98832.81;216266;1264;139789;-75
2024/01/01 07:47:58;;;;;;;46.40;26.80;;;;;;;3.82;94.03;98831.80;216022;1266;140336;-71
2024/01/01 07:53:02;;;;;;;51.50;29.10;;;;;;;3.84;94.31;98832.55;216247;1263;139861;-75
2024/01/01 07:58:05;;;;;;;47.10;27.60;;;;;;;3.85;93.93;98840.95;216042;1267;139891;-71
2024/01/01 08:03:09;;;;;;;47.40;29.70;;;;;;;3.80;93.81;98840.89;216301;1265;139841;-75
2024/01/01 08:08:12;;;;;;;45.40;28.40;;;;;;;3.76;93.67;98847.96;216098;1265;141786;-69
2024/01/01 08:13:18;;;;;;;47.80;31.00;;;;;;;3.71;93.85;98844.83;216046;1264;139587;-73
2024/01/01 08:18:21;;;;;;;47.30;28.30;;;;;;;3.71;94.04;98845.23;216263;1267;139934;-73
2024/01/01 08:23:27;;;;;;;46.10;28.70;;;;;;;3.69;94.04;98850.11;216088;1267;140955;-72
2024/01/01 08:28:32;;;;;;;50.20;30.50;;;;;;;3.70;94.35;98846.86;215834;1267;141242;-71
2024/01/01 08:33:34;;;;;;;53.00;32.70;;;;;;;3.74;94.55;98846.31;216536;1267;139636;-72
2024/01/01 08:38:37;;;;;;;51.10;30.60;;;;;;;3.81;94.83;98848.91;215901;1267;140328;-72
2024/01/01 08:43:40;;;;;;;45.00;26.60;;;;;;;3.87;94.85;98852.77;215856;1268;140362;-72
2024/01/01 08:48:45;;;;;;;47.30;27.00;;;;;;;3.89;94.73;98853.52;218974;1265;141545;-72
2024/01/01 08:53:47;;;;;;;48.00;26.00;;;;;;;3.94;95.04;98848.18;218940;1267;140160;-72
2024/01/01 08:58:51;;;;;;;36.70;23.50;;;;;;;4.00;94.73;98851.30;216138;1267;139545;-71
2024/01/01 09:03:56;;;;;;;39.90;23.80;;;;;;;4.05;94.77;98858.07;215960;1267;140188;-71
2024/01/01 09:08:59;;;;;;;37.90;21.60;;;;;;;4.13;94.92;98860.49;218285;1265;140139;-71
2024/01/01 09:14:02;;;;;;;34.40;20.80;;;;;;;4.20;95.10;98856.08;216431;1267;140599;-73
2024/01/01 09:19:05;;;;;;;29.60;18.80;;;;;;;4.28;95.42;98851.00;215926;1266;140281;-70
2024/01/01 09:24:11;;;;;;;36.50;21.30;;;;;;;4.35;95.52;98844.20;215741;1267;139896;-73
2024/01/01 09:29:14;;;;;;;31.30;19.70;;;;;;;4.42;95.57;98850.11;215675;1267;140818;-73
2024/01/01 09:34:17;;;;;;;29.10;18.10;;;;;;;4.48;95.40;98847.72;215795;1267;140364;-75
2024/01/01 09:39:29;;;;;;;31.40;17.90;;;;;;;4.53;95.60;98842.60;215989;1267;141161;-78
2024/01/01 09:44:32;;;;;;;35.30;19.00;;;;;;;4.56;95.51;98837.46;215777;1263;151367;-76
2024/01/01 09:49:35;;;;;;;34.40;20.60;;;;;;;4.58;95.68;98831.98;216095;1266;139973;-71
2024/01/01 09:54:38;;;;;;;29.30;18.80;;;;;;;4.62;95.71;98837.52;216057;1267;139417;-70
2024/01/01 09:59:41;;;;;;;37.80;19.00;;;;;;;4.66;95.66;98828.55;215880;1267;139880;-71
2024/01/01 10:04:44;;;;;;;29.50;18.90;;;;;;;4.68;95.59;98825.78;215806;1267;140651;-74
2024/01/01 10:09:50;;;;;;;27.40;16.70;;;;;;;4.72;95.85;98830.45;216015;1266;140015;-74
2024/01/01 10:14:59;;;;;;;27.50;16.90;;;;;;;4.77;95.81;98825.95;216637;1267;140419;-74
2024/01/01 10:20:03;;;;;;;24.70;16.00;;;;;;;4.78;95.81;98822.80;215582;1268;140593;-73
2024/01/01 10:25:11;;;;;;;26.30;16.20;;;;;;;4.80;95.51;98828.48;215757;1267;141482;-73
2024/01/01 10:30:16;;;;;;;24.00;14.30;;;;;;;4.83;95.99;98828.40;216299;1267;300975;-74
2024/01/01 10:35:19;;;;;;;16.70;9.60;;;;;;;4.85;95.69;98828.35;215524;1267;139610;-73
2024/01/01 10:40:21;;;;;;;21.70;12.40;;;;;;;4.83;95.69;98829.73;216096;1267;139632;-73
2024/01/01 10:45:24;;;;;;;21.70;12.10;;;;;;;4.84;95.25;98829.17;215999;1267;140037;-73
2024/01/01 10:50:31;;;;;;;21.60;12.70;;;;;;;4.83;95.70;98818.81;216057;1264;140327;-73
2024/01/01 10:55:53;;;;;;;33.10;17.50;;;;;;;4.82;95.66;98820.61;218488;1264;140079;-73
2024/01/01 11:01:06;;;;;;;21.50;13.90;;;;;;;4.82;95.52;98815.61;215755;1264;140191;-73
2024/01/01 11:06:30;;;;;;;18.80;11.90;;;;;;;4.85;95.50;98811.77;216881;1267;140619;-74
2024/01/01 11:11:33;;;;;;;18.60;11.20;;;;;;;4.85;95.39;98808.08;215951;1269;229522;-73
2024/01/01 11:16:52;;;;;;;26.30;15.00;;;;;;;4.85;95.68;98801.33;215965;1266;207775;-74
2024/01/01 11:22:30;;;;;;;26.30;12.80;;;;;;;4.89;95.41;98792.61;215894;1266;140519;-74
2024/01/01 11:27:34;;;;;;;25.60;15.20;;;;;;;4.92;95.57;98792.85;215857;1267;139615;-73
2024/01/01 11:32:37;;;;;;;21.60;13.90;;;;;;;4.93;95.67;98788.95;215955;1267;140075;-73
2024/01/01 11:37:42;;;;;;;22.50;13.80;;;;;;;4.96;95.60;98791.11;215841;1267;140411;-74
2024/01/01 11:42:44;;;;;;;24.40;13.20;;;;;;;4.97;95.80;98789.88;215890;1267;207132;-74
2024/01/01 11:47:48;;;;;;;20.00;13.20;;;;;;;4.99;95.48;98783.64;216123;1267;140676;-72
2024/01/01 11:53:00;;;;;;;21.40;13.10;;;;;;;4.98;95.31;98777.76;215952;1264;140357;-73
2024/01/01 11:58:03;;;;;;;28.50;14.40;;;;;;;4.99;95.65;98775.35;215735;1267;140759;-73
2024/01/01 12:03:09;;;;;;;21.10;13.70;;;;;;;5.01;95.94;98782.72;215942;1267;140510;-73
2024/01/01 12:08:13;;;;;;;24.30;12.80;;;;;;;5.03;95.53;98779.02;215685;1267;140531;-73
2024/01/01 12:13:16;;;;;;;19.40;13.30;;;;;;;5.04;95.64;98773.13;216758;1267;140048;-72
2024/01/01 12:18:20;;;;;;;26.50;15.50;;;;;;;5.04;95.59;98774.66;215901;1267;140370;-74
2024/01/01 12:23:24;;;;;;;23.80;12.10;;;;;;;5.07;95.60;98768.51;215898;1264;139989;-71
2024/01/01 12:28:28;;;;;;;22.40;11.90;;;;;;;5.04;95.52;98769.97;218897;1263;139530;-71
2024/01/01 12:33:31;;;;;;;21.60;13.00;;;;;;;5.05;95.20;98769.55;219287;1263;140185;-71
2024/01/01 12:38:34;;;;;;;19.50;12.40;;;;;;;5.06;95.67;98766.11;219011;1262;141188;-71
2024/01/01 12:43:37;;;;;;;15.70;9.60;;;;;;;5.07;95.66;98764.08;217475;1264;140233;-72
2024/01/01 12:48:46;;;;;;;25.50;13.30;;;;;;;5.06;95.18;98757.95;215850;1267;139601;-70
2024/01/01 12:53:52;;;;;;;25.00;15.10;;;;;;;5.06;95.32;98747.51;218692;1263;139919;-71
2024/01/01 12:58:55;;;;;;;27.30;14.50;;;;;;;5.09;95.48;98743.34;216186;1263;140399;-71
2024/01/01 13:03:58;;;;;;;30.10;15.20;;;;;;;5.13;95.39;98738.86;215845;1267;154303;-70
2024/01/01 13:09:00;;;;;;;17.70;11.60;;;;;;;5.13;95.44;98737.92;215619;1267;140437;-71
2024/01/01 13:14:03;;;;;;;28.30;13.00;;;;;;;5.14;95.16;98740.52;215884;1267;139572;-71
2024/01/01 13:19:05;;;;;;;23.50;11.50;;;;;;;5.11;95.17;98745.67;215960;1264;140321;-70
2024/01/01 13:24:08;;;;;;;21.60;12.80;;;;;;;5.07;94.98;98748.02;215704;1264;139934;-73
2024/01/01 13:29:11;;;;;;;21.00;12.20;;;;;;;5.05;95.28;98752.89;216903;1263;140563;-72
2024/01/01 13:34:14;;;;;;;19.30;11.50;;;;;;;5.03;95.12;98760.15;216455;1269;141879;-72
2024/01/01 13:39:17;;;;;;;23.50;13.20;;;;;;;5.00;95.11;98759.90;215955;1267;139904;-72
2024/01/01 13:44:20;;;;;;;30.40;12.90;;;;;;;4.98;95.10;98764.79;215717;1264;140866;-72
2024/01/01 13:49:22;;;;;;;23.80;12.60;;;;;;;4.92;95.13;98766.77;216885;1263;140779;-71
2024/01/01 13:54:25;;;;;;;22.00;13.00;;;;;;;4.91;95.42;98765.15;215710;1264;139762;-71
2024/01/01 13:59:28;;;;;;;23.60;13.80;;;;;;;4.89;95.11;98764.78;215889;1263;139739;-74
2024/01/01 14:04:32;;;;;;;17.10;9.40;;;;;;;4.86;95.48;98765.77;215855;1267;141063;-74
2024/01/01 14:09:35;;;;;;;25.60;14.80;;;;;;;4.83;95.01;98766.09;215913;1264;139745;-72
2024/01/01 14:14:42;;;;;;;21.80;12.00;;;;;;;4.80;95.58;98765.05;216037;1267;140669;-74
2024/01/01 14:19:46;;;;;;;26.10;12.10;;;;;;;4.80;95.42;98760.40;216889;1264;206513;-74
2024/01/01 14:24:50;;;;;;;21.00;11.50;;;;;;;4.78;95.14;98761.67;217840;1263;140505;-75
2024/01/01 14:29:53;;;;;;;26.30;13.80;;;;;;;4.76;95.44;98765.73;215764;1267;140266;-73
2024/01/01 14:34:56;;;;;;;30.70;15.60;;;;;;;4.73;95.33;98764.48;219200;1263;140175;-74
2024/01/01 14:39:58;;;;;;;20.30;10.70;;;;;;;4.71;95.31;98764.60;217365;1263;140122;-73
2024/01/01 14:45:01;;;;;;;21.10;12.10;;;;;;;4.70;95.11;98760.70;215852;1267;140985;-72
2024/01/01 14:50:05;;;;;;;21.10;13.00;;;;;;;4.71;95.37;98772.14;216601;1263;140013;-74
2024/01/01 14:55:08;;;;;;;24.30;12.70;;;;;;;4.70;95.75;98775.98;217327;1265;139981;-72
2024/01/01 15:00:12;;;;;;;23.50;14.00;;;;;;;4.67;95.56;98783.63;215848;1267;139972;-73
2024/01/01 15:05:15;;;;;;;23.80;13.70;;;;;;;4.65;95.38;98784.10;217807;1264;140835;-72
2024/01/01 15:10:18;;;;;;;26.70;14.70;;;;;;;4.63;95.29;98789.81;215616;1264;141367;-72
2024/01/01 15:15:20;;;;;;;25.50;13.30;;;;;;;4.63;95.57;98788.11;215670;1264;140794;-73
2024/01/01 15:20:23;;;;;;;23.30;14.70;;;;;;;4.60;95.33;98794.66;215675;1264;139829;-73
2024/01/01 15:25:26;;;;;;;23.20;14.20;;;;;;;4.59;95.53;98789.66;215787;1264;140531;-72
2024/01/01 15:30:29;;;;;;;17.00;11.60;;;;;;;4.58;95.31;98793.94;215818;1266;140723;-75
2024/01/01 15:35:32;;;;;;;33.70;14.50;;;;;;;4.53;95.27;98793.99;216549;1263;141476;-74
2024/01/01 15:40:35;;;;;;;29.30;15.40;;;;;;;4.50;95.41;98796.38;216737;1264;140744;-74
2024/01/01 15:45:39;;;;;;;26.40;16.10;;;;;;;4.47;95.50;98806.36;216420;1264;141236;-72
2024/01/01 15:50:44;;;;;;;32.60;18.10;;;;;;;4.44;95.60;98803.05;216764;1264;140507;-73
2024/01/01 15:56:02;;;;;;;62.00;31.80;;;;;;;4.44;95.49;98807.96;216322;1267;140673;-74
2024/01/01 16:01:06;;;;;;;58.10;30.40;;;;;;;4.43;95.69;98811.58;216161;1263;140750;-69
2024/01/01 16:06:11;;;;;;;35.60;18.60;;;;;;;4.43;95.75;98814.90;216236;1264;139902;-71
2024/01/01 16:11:14;;;;;;;28.30;16.00;;;;;;;4.42;95.74;98822.14;216941;1264;139817;-77
2024/01/01 16:16:18;;;;;;;29.40;18.90;;;;;;;4.41;95.84;98825.40;216132;1267;140230;-73
2024/01/01 16:21:21;;;;;;;31.10;21.30;;;;;;;4.41;95.65;98822.23;216205;1263;139425;-73
2024/01/01 16:26:23;;;;;;;30.90;16.30;;;;;;;4.37;95.39;98829.12;216248;1267;140189;-73
2024/01/01 16:31:25;;;;;;;27.50;17.00;;;;;;;4.33;95.41;98835.00;216190;1264;140056;-71
2024/01/01 16:36:28;;;;;;;36.50;21.40;;;;;;;4.30;95.52;98839.98;216114;1267;139824;-72
2024/01/01 16:41:30;;;;;;;32.80;18.60;;;;;;;4.31;95.56;98839.92;216128;1267;140233;-71
2024/01/01 16:46:33;;;;;;;27.00;16.50;;;;;;;4.32;95.78;98842.31;216117;1265;140489;-72
2024/01/01 16:51:38;;;;;;;30.30;17.50;;;;;;;4.30;95.66;98844.15;216250;1267;141073;-77
2024/01/01 16:56:40;;;;;;;28.20;16.50;;;;;;;4.31;95.87;98854.78;216566;1262;140894;-75
2024/01/01 17:01:46;;;;;;;35.60;16.90;;;;;;;4.33;95.89;98856.27;216089;1264;139717;-72
2024/01/01 17:06:51;;;;;;;32.20;17.70;;;;;;;4.33;96.07;98857.93;216237;1264;140722;-73
2024/01/01 17:11:55;;;;;;;26.90;16.20;;;;;;;4.33;96.04;98859.92;216301;1267;140650;-78
2024/01/01 17:16:58;;;;;;;34.80;18.50;;;;;;;4.31;95.75;98864.72;216248;1264;140581;-76
2024/01/01 17:22:02;;;;;;;30.90;15.40;;;;;;;4.32;95.99;98865.33;216113;1266;139942;-74
2024/01/01 17:27:05;;;;;;;26.30;16.80;;;;;;;4.33;96.28;98871.25;216125;1264;139762;-74
2024/01/01 17:32:08;;;;;;;31.80;17.10;;;;;;;4.34;96.02;98872.70;216313;1264;140741;-76
2024/01/01 17:37:12;;;;;;;26.20;15.10;;;;;;;4.36;96.04;98876.42;215957;1267;140326;-79
2024/01/01 17:42:15;;;;;;;28.20;16.20;;;;;;;4.38;96.11;98884.73;216376;1264;141187;-77
2024/01/01 17:47:23;;;;;;;29.10;16.70;;;;;;;4.39;96.15;98883.70;216190;1265;141519;-75
2024/01/01 17:52:26;;;;;;;57.80;27.60;;;;;;;4.42;96.03;98887.38;217466;1264;140742;-76
2024/01/01 17:57:28;;;;;;;44.30;21.30;;;;;;;4.44;96.37;98894.63;217250;1262;142043;-74
2024/01/01 18:02:31;;;;;;;33.70;17.00;;;;;;;4.45;95.93;98897.84;216038;1263;140434;-77
2024/01/01 18:07:40;;;;;;;29.70;18.30;;;;;;;4.45;95.83;98898.98;217195;1263;140389;-77
2024/01/01 18:12:42;;;;;;;35.80;22.20;;;;;;;4.44;96.09;98908.73;215949;1264;140752;-75
2024/01/01 18:17:45;;;;;;;33.60;17.70;;;;;;;4.44;96.07;98912.77;215776;1264;139763;-74
2024/01/01 18:22:48;;;;;;;28.90;16.00;;;;;;;4.45;95.96;98912.69;215376;1267;140721;-74
2024/01/01 18:27:50;;;;;;;30.40;17.00;;;;;;;4.43;96.17;98917.86;215678;1263;139790;-73
2024/01/01 18:32:54;;;;;;;25.90;13.80;;;;;;;4.41;96.05;98921.61;215911;1264;140574;-74
2024/01/01 18:37:56;;;;;;;32.70;18.40;;;;;;;4.39;96.02;98918.90;216022;1264;139604;-74
2024/01/01 18:42:59;;;;;;;18.30;9.80;;;;;;;4.39;96.03;98920.60;217108;1264;141024;-74
2024/01/01 18:48:02;;;;;;;25.50;13.80;;;;;;;4.39;96.12;98919.58;216074;1264;140329;-75
2024/01/01 18:53:05;;;;;;;26.20;13.90;;;;;;;4.42;96.31;98916.08;215849;1264;140065;-74
2024/01/01 18:58:13;;;;;;;22.40;11.90;;;;;;;4.41;96.20;98924.29;215600;1265;140226;-75
2024/01/01 19:03:16;;;;;;;25.30;13.00;;;;;;;4.42;96.51;98928.55;216028;1264;140386;-74
2024/01/01 19:08:20;;;;;;;22.20;12.50;;;;;;;4.43;96.26;98933.66;215897;1267;139431;-74
2024/01/01 19:13:24;;;;;;;20.80;10.50;;;;;;;4.45;96.56;98936.48;215907;1267;140481;-74
2024/01/01 19:18:27;;;;;;;18.20;11.80;;;;;;;4.46;96.32;98939.45;215796;1264;140480;-75
2024/01/01 19:23:29;;;;;;;16.00;9.00;;;;;;;4.48;96.18;98943.78;215816;1264;140563;-75
2024/01/01 19:28:34;;;;;;;27.30;12.10;;;;;;;4.49;96.16;98941.98;215672;1267;141493;-76
2024/01/01 19:33:37;;;;;;;26.40;13.50;;;;;;;4.49;96.05;98942.02;215980;1264;141712;-75
2024/01/01 19:38:40;;;;;;;29.10;15.10;;;;;;;4.48;96.09;98944.98;216173;1263;139940;-76
2024/01/01 19:43:42;;;;;;;19.70;11.20;;;;;;;4.46;96.15;98944.03;215808;1264;139731;-76
2024/01/01 19:48:46;;;;;;;18.00;10.80;;;;;;;4.46;96.13;98944.19;215931;1264;140890;-76
2024/01/01 19:53:48;;;;;;;21.80;10.20;;;;;;;4.43;95.92;98948.11;217451;1264;140032;-75
2024/01/01 19:58:51;;;;;;;20.10;10.60;;;;;;;4.41;95.90;98953.69;215960;1264;140683;-74
2024/01/01 20:03:54;;;;;;;27.90;11.50;;;;;;;4.41;96.14;98951.52;215731;1264;141812;-74
2024/01/01 20:09:00;;;;;;;17.80;10.20;;;;;;;4.41;95.71;98951.04;216063;1264;140041;-74
2024/01/01 20:14:03;;;;;;;25.00;10.30;;;;;;;4.39;95.91;98953.69;215926;1267;140602;-75
2024/01/01 20:19:09;;;;;;;20.50;12.20;;;;;;;4.39;95.93;98954.83;215700;1267;140044;-75
2024/01/01 20:24:16;;;;;;;19.50;10.90;;;;;;;4.41;96.01;98959.48;215958;1264;140650;-75
2024/01/01 20:29:21;;;;;;;31.50;13.80;;;;;;;4.40;96.25;98963.80;216117;1267;141037;-74
2024/01/01 20:34:24;;;;;;;20.90;13.80;;;;;;;4.39;95.84;98965.50;215819;1264;139946;-74
2024/01/01 20:39:27;;;;;;;17.70;9.30;;;;;;;4.40;95.82;98967.65;215795;1264;139629;-75
2024/01/01 20:44:31;;;;;;;20.80;10.90;;;;;;;4.42;96.11;98966.02;216058;1264;139619;-75
2024/01/01 20:49:36;;;;;;;20.40;11.00;;;;;;;4.41;95.94;98960.17;216131;1264;139665;-75
2024/01/01 20:54:39;;;;;;;21.70;10.20;;;;;;;4.40;95.91;98961.80;215941;1264;140290;-75
2024/01/01 20:59:45;;;;;;;22.80;11.80;;;;;;;4.39;95.76;98959.74;216026;1264;140006;-75
2024/01/01 21:04:48;;;;;;;21.60;11.30;;;;;;;4.40;95.86;98962.33;215761;1264;140001;-75
2024/01/01 21:09:51;;;;;;;17.60;10.40;;;;;;;4.40;95.78;98966.02;215788;1266;140289;-75
2024/01/01 21:14:54;;;;;;;22.50;10.40;;;;;;;4.39;95.82;98969.84;217193;1264;139873;-78
2024/01/01 21:19:57;;;;;;;14.30;8.40;;;;;;;4.38;95.59;98973.59;216482;1267;139544;-75
2024/01/01 21:25:01;;;;;;;18.60;9.40;;;;;;;4.37;95.64;98974.36;215990;1267;140012;-75
2024/01/01 21:30:05;;;;;;;20.80;9.40;;;;;;;4.37;95.82;98976.27;216165;1264;139456;-76
2024/01/01 21:35:15;;;;;;;15.90;7.20;;;;;;;4.37;95.61;98968.60;215886;1267;139516;-74
2024/01/01 21:40:18;;;;;;;17.60;10.50;;;;;;;4.37;95.80;98966.53;215807;1264;140007;-75
2024/01/01 21:45:21;;;;;;;15.40;7.80;;;;;;;4.40;95.67;98971.19;215610;1264;141218;-74
2024/01/01 21:50:23;;;;;;;14.20;7.70;;;;;;;4.40;95.50;98966.07;215787;1267;139681;-75
2024/01/01 21:55:26;;;;;;;12.60;6.90;;;;;;;4.38;95.52;98973.51;215906;1264;140071;-75
2024/01/01 22:00:28;;;;;;;13.30;7.40;;;;;;;4.37;95.64;98975.05;215945;1267;139378;-75
2024/01/01 22:05:31;;;;;;;9.80;5.90;;;;;;;4.38;95.78;98982.77;215981;1267;139301;-74
2024/01/01 22:10:33;;;;;;;13.90;7.00;;;;;;;4.38;95.74;98981.79;215706;1264;140058;-75
2024/01/01 22:15:36;;;;;;;14.50;5.80;;;;;;;4.39;95.83;98983.65;215872;1264;140163;-74
2024/01/01 22:20:39;;;;;;;9.40;7.00;;;;;;;4.39;95.82;98985.23;215604;1265;140183;-74
2024/01/01 22:25:41;;;;;;;11.80;5.90;;;;;;;4.41;96.10;98980.75;215729;1267;140867;-73
2024/01/01 22:30:44;;;;;;;8.60;5.20;;;;;;;4.42;95.93;98981.52;215424;1265;442207;-74
2024/01/01 22:35:47;;;;;;;13.40;6.30;;;;;;;4.40;96.20;98983.52;216732;1265;140434;-74
2024/01/01 22:40:49;;;;;;;17.70;5.80;;;;;;;4.39;96.33;98979.02;215868;1263;140877;-75
2024/01/01 22:45:52;;;;;;;7.10;4.50;;;;;;;4.42;96.30;98985.70;215995;1267;140679;-74
2024/01/01 22:50:55;;;;;;;13.50;5.10;;;;;;;4.42;96.43;98989.45;215918;1267;141501;-74
2024/01/01 22:55:58;;;;;;;15.90;6.20;;;;;;;4.40;96.18;98992.25;215797;1267;139620;-75
2024/01/01 23:01:01;;;;;;;18.20;6.50;;;;;;;4.41;96.46;98992.89;215748;1264;140109;-74